createdAt,value
2022-10-02T00:01:41.597Z,82.90
2022-10-02T00:04:14.356Z,83.00
2022-10-02T00:06:46.649Z,82.80
2022-10-02T00:09:20.423Z,82.30
2022-10-02T00:11:51.450Z,82.20
2022-10-02T00:14:20.138Z,82.40
2022-10-02T00:16:54.553Z,82.60
2022-10-02T00:19:21.374Z,82.80
2022-10-02T00:22:10.649Z,83.10
2022-10-02T00:24:43.780Z,83.40
2022-10-02T00:27:48.181Z,83.70
2022-10-02T00:30:18.009Z,83.60
2022-10-02T00:33:03.509Z,83.80
2022-10-02T00:35:57.957Z,83.70
2022-10-02T00:38:38.422Z,83.70
2022-10-02T00:41:49.510Z,84.10
2022-10-02T00:44:45.663Z,84.00
2022-10-02T00:47:37.160Z,83.70
2022-10-02T00:50:51.999Z,83.50
2022-10-02T00:53:37.524Z,83.50
2022-10-02T00:56:10.103Z,83.90
2022-10-02T00:59:04.780Z,84.10
2022-10-02T01:01:56.959Z,84.20
2022-10-02T01:04:38.395Z,84.60
2022-10-02T01:07:08.729Z,84.60
2022-10-02T01:09:35.371Z,84.90
2022-10-02T01:12:02.918Z,84.90
2022-10-02T01:14:38.019Z,85.00
2022-10-02T01:17:18.785Z,85.00
2022-10-02T01:19:45.604Z,84.90
2022-10-02T01:22:21.475Z,85.00
2022-10-02T01:24:59.528Z,85.10
2022-10-02T01:27:26.969Z,85.20
2022-10-02T01:30:00.691Z,85.30
2022-10-02T01:32:31.552Z,85.30
2022-10-02T01:35:00.632Z,85.30
2022-10-02T01:37:33.369Z,85.30
2022-10-02T01:40:05.824Z,85.40
2022-10-02T01:42:34.042Z,85.50
2022-10-02T01:45:01.487Z,85.50
2022-10-02T01:47:43.775Z,85.40
2022-10-02T01:50:45.682Z,85.40
2022-10-02T01:53:41.533Z,85.00
2022-10-02T01:56:46.965Z,85.30
2022-10-02T01:59:46.655Z,85.30
2022-10-02T02:02:35.519Z,86.10
2022-10-02T02:05:26.119Z,85.70
2022-10-02T02:08:23.438Z,85.90
2022-10-02T02:11:04.721Z,86.40
2022-10-02T02:13:49.423Z,86.50
2022-10-02T02:16:22.864Z,86.40
2022-10-02T02:18:59.000Z,86.40
2022-10-02T02:21:35.240Z,86.40
2022-10-02T02:24:07.591Z,86.30
2022-10-02T02:26:37.557Z,86.30
2022-10-02T02:29:08.486Z,86.40
2022-10-02T02:31:47.317Z,86.50
2022-10-02T02:34:20.538Z,86.60
2022-10-02T02:36:51.680Z,86.70
2022-10-02T02:39:32.571Z,86.90
2022-10-02T02:42:04.735Z,87.10
2022-10-02T02:44:38.644Z,87.30
2022-10-02T02:47:15.367Z,87.50
2022-10-02T02:50:01.881Z,87.70
2022-10-02T02:52:40.488Z,87.70
2022-10-02T02:55:19.990Z,87.50
2022-10-02T02:57:58.659Z,87.20
2022-10-02T03:00:25.864Z,87.00
2022-10-02T03:02:54.541Z,87.10
2022-10-02T03:05:22.654Z,87.30
2022-10-02T03:08:03.091Z,87.60
2022-10-02T03:10:39.821Z,87.60
2022-10-02T03:13:38.515Z,87.40
2022-10-02T03:16:05.177Z,87.00
2022-10-02T03:19:11.691Z,86.80
2022-10-02T03:21:47.212Z,87.00
2022-10-02T03:25:07.759Z,87.20
2022-10-02T03:27:42.430Z,87.20
2022-10-02T03:30:11.999Z,87.70
2022-10-02T03:32:41.589Z,88.10
2022-10-02T03:35:13.058Z,88.10
2022-10-02T03:37:42.529Z,88.20
2022-10-02T03:40:09.540Z,88.30
2022-10-02T03:42:36.810Z,88.30
2022-10-02T03:45:04.649Z,88.30
2022-10-02T03:47:31.336Z,88.30
2022-10-02T03:49:57.991Z,88.20
2022-10-02T03:52:25.115Z,88.00
2022-10-02T03:54:57.327Z,87.90
2022-10-02T03:57:25.750Z,87.80
2022-10-02T04:00:06.919Z,87.70
2022-10-02T04:03:00.861Z,87.40
2022-10-02T04:05:49.824Z,87.50
2022-10-02T04:08:34.467Z,87.30
2022-10-02T04:11:13.538Z,87.40
2022-10-02T04:13:46.704Z,87.50
2022-10-02T04:16:29.482Z,87.70
2022-10-02T04:19:01.957Z,87.70
2022-10-02T04:22:10.538Z,87.70
2022-10-02T04:24:45.296Z,87.60
2022-10-02T04:27:20.028Z,87.90
2022-10-02T04:29:52.878Z,88.20
2022-10-02T04:32:33.831Z,88.40
2022-10-02T04:35:02.722Z,88.60
2022-10-02T04:37:47.993Z,88.40
2022-10-02T04:40:27.796Z,88.10
2022-10-02T04:43:09.732Z,87.90
2022-10-02T04:46:04.167Z,88.20
2022-10-02T04:48:55.336Z,88.30
2022-10-02T04:51:40.740Z,88.30
2022-10-02T04:54:42.888Z,88.40
2022-10-02T04:57:37.747Z,88.50
2022-10-02T05:00:25.574Z,88.60
2022-10-02T05:03:05.376Z,88.80
2022-10-02T05:05:38.804Z,89.00
2022-10-02T05:08:26.051Z,89.10
2022-10-02T05:11:30.388Z,89.10
2022-10-02T05:14:15.645Z,89.20
2022-10-02T05:16:42.348Z,89.10
2022-10-02T05:19:36.844Z,89.20
2022-10-02T05:22:30.795Z,89.20
2022-10-02T05:25:15.255Z,89.20
2022-10-02T05:28:08.333Z,89.10
2022-10-02T05:31:09.950Z,89.10
2022-10-02T05:33:47.399Z,88.80
2022-10-02T05:36:31.046Z,89.00
2022-10-02T05:39:07.364Z,89.00
2022-10-02T05:41:40.092Z,88.90
2022-10-02T05:44:15.422Z,88.60
2022-10-02T05:47:20.872Z,88.60
2022-10-02T05:50:03.109Z,88.60
2022-10-02T05:52:44.256Z,88.60
2022-10-02T05:55:19.292Z,88.70
2022-10-02T05:57:53.828Z,88.70
2022-10-02T06:00:49.052Z,88.70
2022-10-02T06:03:40.680Z,88.70
2022-10-02T06:06:30.164Z,88.80
2022-10-02T06:09:19.994Z,88.90
2022-10-02T06:11:57.270Z,89.00
2022-10-02T06:14:31.442Z,89.00
2022-10-02T06:17:04.329Z,89.10
2022-10-02T06:19:49.779Z,89.10
2022-10-02T06:22:21.104Z,88.90
2022-10-02T06:25:00.355Z,89.10
2022-10-02T06:27:41.566Z,89.20
2022-10-02T06:30:13.019Z,89.30
2022-10-02T06:32:48.213Z,89.30
2022-10-02T06:35:18.431Z,89.20
2022-10-02T06:38:24.421Z,89.20
2022-10-02T06:41:12.162Z,89.10
2022-10-02T06:43:51.948Z,89.10
2022-10-02T06:46:22.775Z,89.20
2022-10-02T06:49:04.413Z,89.10
2022-10-02T06:51:35.122Z,89.10
2022-10-02T06:54:28.019Z,89.00
2022-10-02T06:57:00.147Z,89.00
2022-10-02T06:59:47.433Z,89.10
2022-10-02T07:02:43.277Z,89.00
2022-10-02T07:05:53.282Z,89.10
2022-10-02T07:08:22.815Z,89.00
2022-10-02T07:10:57.007Z,88.90
2022-10-02T07:13:47.986Z,88.80
2022-10-02T07:16:35.217Z,88.70
2022-10-02T07:19:20.980Z,88.40
2022-10-02T07:21:47.558Z,88.50
2022-10-02T07:24:37.012Z,88.50
2022-10-02T07:27:14.882Z,88.40
2022-10-02T07:30:03.076Z,88.40
2022-10-02T07:32:48.668Z,88.40
2022-10-02T07:35:34.897Z,88.20
2022-10-02T07:38:07.307Z,88.00
2022-10-02T07:40:37.460Z,88.10
2022-10-02T07:43:21.635Z,88.20
2022-10-02T07:46:16.841Z,88.30
2022-10-02T07:48:47.980Z,88.30
2022-10-02T07:51:49.831Z,88.30
2022-10-02T07:54:31.172Z,88.30
2022-10-02T07:57:20.121Z,88.00
2022-10-02T07:59:48.909Z,87.70
2022-10-02T08:02:32.483Z,87.60
2022-10-02T08:05:03.648Z,87.30
2022-10-02T08:07:31.347Z,87.10
2022-10-02T08:10:03.455Z,86.90
2022-10-02T08:12:45.908Z,86.50
2022-10-02T08:15:16.895Z,86.10
2022-10-02T08:17:51.219Z,86.10
2022-10-02T08:20:32.631Z,85.90
2022-10-02T08:23:20.983Z,85.80
2022-10-02T08:26:14.679Z,85.70
2022-10-02T08:28:53.580Z,85.30
2022-10-02T08:31:20.305Z,84.90
2022-10-02T08:33:47.053Z,85.00
2022-10-02T08:36:34.823Z,85.10
2022-10-02T08:39:19.049Z,85.20
2022-10-02T08:42:04.220Z,85.30
2022-10-02T08:44:36.657Z,85.30
2022-10-02T08:47:15.544Z,85.00
2022-10-02T08:50:20.143Z,84.80
2022-10-02T08:53:17.204Z,84.30
2022-10-02T08:56:05.191Z,83.70
2022-10-02T08:59:00.848Z,83.50
2022-10-02T09:01:34.992Z,83.80
2022-10-02T09:04:28.142Z,83.90
2022-10-02T09:07:26.059Z,83.60
2022-10-02T09:10:32.578Z,83.60
2022-10-02T09:13:34.388Z,83.20
2022-10-02T09:16:15.165Z,82.30
2022-10-02T09:19:01.513Z,80.70
2022-10-02T09:21:46.799Z,80.20
2022-10-02T09:24:50.883Z,79.90
2022-10-02T09:27:46.220Z,80.10
2022-10-02T09:30:39.293Z,80.30
2022-10-02T09:33:16.981Z,80.00
2022-10-02T09:36:02.205Z,79.90
2022-10-02T09:39:02.599Z,79.90
2022-10-02T09:41:50.036Z,79.50
2022-10-02T09:44:46.019Z,79.20
2022-10-02T09:48:08.566Z,79.30
2022-10-02T09:51:06.820Z,79.50
2022-10-02T09:53:51.483Z,79.10
2022-10-02T09:57:01.116Z,78.70
2022-10-02T09:59:48.767Z,77.40
2022-10-02T10:02:20.444Z,76.00
2022-10-02T10:05:25.206Z,75.60
2022-10-02T10:07:57.729Z,75.80
2022-10-02T10:10:27.162Z,75.80
2022-10-02T10:13:32.525Z,75.80
2022-10-02T10:16:11.464Z,75.50
2022-10-02T10:19:07.549Z,75.10
2022-10-02T10:22:01.683Z,74.20
2022-10-02T10:25:05.901Z,73.00
2022-10-02T10:27:49.003Z,72.80
2022-10-02T10:30:50.204Z,71.50
2022-10-02T10:33:37.395Z,71.20
2022-10-02T10:36:54.604Z,69.80
2022-10-02T10:39:43.939Z,69.00
2022-10-02T10:43:06.404Z,69.20
2022-10-02T10:46:02.701Z,69.20
2022-10-02T10:48:34.363Z,68.90
2022-10-02T10:51:42.595Z,68.80
2022-10-02T10:54:43.420Z,69.00
2022-10-02T10:57:42.868Z,69.10
2022-10-02T11:00:30.423Z,69.30
2022-10-02T11:03:14.785Z,69.60
2022-10-02T11:06:02.649Z,70.40
2022-10-02T11:08:45.374Z,70.60
2022-10-02T11:11:23.355Z,70.80
2022-10-02T11:14:26.663Z,70.30
2022-10-02T11:17:11.379Z,71.20
2022-10-02T11:20:02.342Z,71.70
2022-10-02T11:22:37.873Z,71.30
2022-10-02T11:25:16.393Z,70.10
2022-10-02T11:28:06.063Z,69.20
2022-10-02T11:31:18.253Z,69.50
2022-10-02T11:34:00.477Z,68.80
2022-10-02T11:36:41.648Z,68.20
2022-10-02T11:39:19.909Z,68.30
2022-10-02T11:42:11.653Z,68.10
2022-10-02T11:45:04.473Z,68.40
2022-10-02T11:48:09.142Z,67.40
2022-10-02T11:51:01.878Z,67.30
2022-10-02T11:53:41.788Z,66.90
2022-10-02T11:56:33.427Z,67.00
2022-10-02T11:59:22.956Z,67.00
2022-10-02T12:02:15.651Z,66.20
2022-10-02T12:04:47.185Z,65.30
2022-10-02T12:07:35.600Z,65.00
2022-10-02T12:10:36.398Z,64.80
2022-10-02T12:13:04.386Z,64.30
2022-10-02T12:15:42.981Z,63.80
2022-10-02T12:18:38.942Z,63.10
2022-10-02T12:21:31.283Z,63.40
2022-10-02T12:24:34.565Z,64.00
2022-10-02T12:27:33.643Z,63.70
2022-10-02T12:30:22.947Z,66.00
2022-10-02T12:33:16.994Z,64.80
2022-10-02T12:36:10.628Z,62.20
2022-10-02T12:38:44.354Z,61.30
2022-10-02T12:41:17.466Z,62.60
2022-10-02T12:44:02.667Z,61.10
2022-10-02T12:46:57.326Z,60.50
2022-10-02T12:49:51.759Z,58.90
2022-10-02T12:52:40.499Z,55.10
2022-10-02T12:55:16.287Z,50.80
2022-10-02T12:58:18.254Z,49.90
2022-10-02T13:01:00.027Z,46.90
2022-10-02T13:03:35.930Z,45.80
2022-10-02T13:06:23.440Z,45.60
2022-10-02T13:09:05.939Z,46.60
2022-10-02T13:11:40.692Z,46.90
2022-10-02T13:14:17.866Z,46.90
2022-10-02T13:17:22.720Z,48.30
2022-10-02T13:20:03.631Z,50.40
2022-10-02T13:22:33.908Z,49.40
2022-10-02T13:25:24.793Z,46.70
2022-10-02T13:28:13.362Z,44.80
2022-10-02T13:31:11.699Z,42.80
2022-10-02T13:33:50.460Z,43.80
2022-10-02T13:36:24.238Z,46.00
2022-10-02T13:39:15.450Z,47.30
2022-10-02T13:42:05.000Z,49.10
2022-10-02T13:44:57.268Z,50.70
2022-10-02T13:47:40.194Z,52.50
2022-10-02T13:50:38.604Z,52.00
2022-10-02T13:53:28.133Z,50.10
2022-10-02T13:56:10.981Z,49.30
2022-10-02T13:59:13.899Z,48.30
2022-10-02T14:02:01.894Z,48.40
2022-10-02T14:04:50.312Z,48.10
2022-10-02T14:07:19.751Z,49.20
2022-10-02T14:09:55.063Z,50.20
2022-10-02T14:12:27.653Z,50.80
2022-10-02T14:15:09.206Z,50.90
2022-10-02T14:18:10.837Z,51.60
2022-10-02T14:20:57.575Z,51.20
2022-10-02T14:23:50.092Z,51.10
2022-10-02T14:27:01.153Z,51.40
2022-10-02T14:29:55.752Z,51.10
2022-10-02T14:32:25.247Z,51.00
2022-10-02T14:35:12.118Z,51.20
2022-10-02T14:38:04.211Z,49.00
2022-10-02T14:40:48.424Z,46.90
2022-10-02T14:43:44.280Z,46.20
2022-10-02T14:46:36.546Z,45.40
2022-10-02T14:49:03.714Z,45.90
2022-10-02T14:51:30.309Z,46.10
2022-10-02T14:54:29.462Z,46.80
2022-10-02T14:56:59.549Z,47.30
2022-10-02T15:00:14.066Z,48.50
2022-10-02T15:02:59.593Z,48.60
2022-10-02T15:06:11.860Z,49.80
2022-10-02T15:08:45.304Z,50.50
2022-10-02T15:11:25.415Z,51.20
2022-10-02T15:14:16.021Z,51.90
2022-10-02T15:17:21.601Z,52.60
2022-10-02T15:20:05.303Z,53.70
2022-10-02T15:22:46.596Z,53.60
2022-10-02T15:25:17.905Z,52.70
2022-10-02T15:27:54.486Z,50.80
2022-10-02T15:30:26.704Z,50.20
2022-10-02T15:33:11.276Z,49.70
2022-10-02T15:35:51.855Z,47.30
2022-10-02T15:38:47.160Z,44.10
2022-10-02T15:41:33.733Z,42.00
2022-10-02T15:44:31.113Z,41.80
2022-10-02T15:47:42.371Z,43.50
2022-10-02T15:50:40.780Z,45.30
2022-10-02T15:53:47.774Z,47.30
2022-10-02T15:56:20.148Z,49.10
2022-10-02T15:59:03.050Z,50.50
2022-10-02T16:01:47.661Z,51.20
2022-10-02T16:04:32.798Z,52.10
2022-10-02T16:07:21.129Z,52.80
2022-10-02T16:10:11.493Z,53.60
2022-10-02T16:13:01.098Z,54.10
2022-10-02T16:15:50.158Z,54.30
2022-10-02T16:18:41.660Z,55.00
2022-10-02T16:21:32.949Z,55.20
2022-10-02T16:24:10.801Z,55.70
2022-10-02T16:27:23.346Z,56.10
2022-10-02T16:30:12.421Z,56.30
2022-10-02T16:33:09.153Z,57.00
2022-10-02T16:35:55.020Z,57.50
2022-10-02T16:38:28.253Z,57.20
2022-10-02T16:40:59.225Z,57.20
2022-10-02T16:43:34.156Z,57.40
2022-10-02T16:46:09.316Z,57.70
2022-10-02T16:48:55.957Z,58.40
2022-10-02T16:51:57.423Z,58.70
2022-10-02T16:54:36.975Z,59.30
2022-10-02T16:57:14.416Z,60.00
2022-10-02T16:59:51.690Z,60.10
2022-10-02T17:02:30.955Z,60.60
2022-10-02T17:05:22.492Z,60.70
2022-10-02T17:07:58.858Z,60.70
2022-10-02T17:11:05.590Z,61.20
2022-10-02T17:13:54.179Z,61.40
2022-10-02T17:16:29.272Z,61.80
2022-10-02T17:19:32.884Z,62.00
2022-10-02T17:22:03.431Z,62.10
2022-10-02T17:24:52.718Z,62.50
2022-10-02T17:27:29.544Z,62.60
2022-10-02T17:29:58.959Z,62.90
2022-10-02T17:32:51.218Z,63.30
2022-10-02T17:35:23.773Z,63.30
2022-10-02T17:38:04.270Z,63.40
2022-10-02T17:40:45.016Z,63.50
2022-10-02T17:43:30.998Z,63.70
2022-10-02T17:46:19.060Z,63.90
2022-10-02T17:49:06.465Z,64.00
2022-10-02T17:52:38.676Z,64.30
2022-10-02T17:55:26.834Z,64.20
2022-10-02T17:58:28.563Z,64.80
2022-10-02T18:01:19.398Z,64.90
2022-10-02T18:04:02.816Z,65.30
2022-10-02T18:06:48.879Z,65.70
2022-10-02T18:09:26.311Z,65.90
2022-10-02T18:12:20.600Z,66.10
2022-10-02T18:15:40.448Z,66.30
2022-10-02T18:18:23.061Z,66.20
2022-10-02T18:21:40.119Z,66.60
2022-10-02T18:24:15.012Z,66.60
2022-10-02T18:27:00.256Z,67.20
2022-10-02T18:29:42.370Z,67.20
2022-10-02T18:32:30.925Z,67.60
2022-10-02T18:35:22.021Z,67.80
2022-10-02T18:38:25.995Z,67.80
2022-10-02T18:41:07.588Z,67.80
2022-10-02T18:43:53.023Z,68.30
2022-10-02T18:46:54.490Z,68.40
2022-10-02T18:49:23.992Z,68.50
2022-10-02T18:52:15.000Z,68.90
2022-10-02T18:54:50.347Z,69.30
2022-10-02T18:57:51.544Z,69.50
2022-10-02T19:00:50.375Z,69.40
2022-10-02T19:03:46.021Z,69.70
2022-10-02T19:06:16.007Z,69.80
2022-10-02T19:09:19.018Z,70.00
2022-10-02T19:11:56.695Z,69.70
2022-10-02T19:14:36.976Z,69.90
2022-10-02T19:17:22.497Z,70.00
2022-10-02T19:19:51.730Z,70.30
2022-10-02T19:22:28.904Z,70.50
2022-10-02T19:24:57.294Z,70.50
2022-10-02T19:27:33.483Z,70.60
2022-10-02T19:30:21.561Z,70.70
2022-10-02T19:32:50.602Z,70.80
2022-10-02T19:35:23.291Z,71.10
2022-10-02T19:37:53.722Z,71.10
2022-10-02T19:40:31.719Z,71.20
2022-10-02T19:43:04.476Z,71.20
2022-10-02T19:45:34.239Z,71.30
2022-10-02T19:48:09.028Z,71.50
2022-10-02T19:50:46.871Z,71.60
2022-10-02T19:53:16.485Z,71.70
2022-10-02T19:55:44.284Z,71.90
2022-10-02T19:58:20.516Z,71.90
2022-10-02T20:00:50.668Z,71.90
2022-10-02T20:03:20.750Z,72.00
2022-10-02T20:05:51.293Z,72.20
2022-10-02T20:08:22.427Z,72.30
2022-10-02T20:10:58.168Z,72.50
2022-10-02T20:13:37.567Z,72.50
2022-10-02T20:16:25.014Z,72.60
2022-10-02T20:18:52.616Z,72.10
2022-10-02T20:21:33.929Z,72.70
2022-10-02T20:24:02.991Z,72.60
2022-10-02T20:26:32.495Z,72.90
2022-10-02T20:29:02.944Z,73.00
2022-10-02T20:31:49.012Z,73.00
2022-10-02T20:34:28.472Z,72.90
2022-10-02T20:37:05.242Z,73.10
2022-10-02T20:39:40.228Z,73.20
2022-10-02T20:42:11.223Z,73.30
2022-10-02T20:44:38.469Z,73.20
2022-10-02T20:47:32.506Z,73.40
2022-10-02T20:50:33.363Z,73.40
2022-10-02T20:53:23.436Z,73.30
2022-10-02T20:56:10.312Z,73.60
2022-10-02T20:58:46.352Z,73.50
2022-10-02T21:01:20.696Z,73.80
2022-10-02T21:04:22.040Z,74.00
2022-10-02T21:07:10.642Z,74.00
2022-10-02T21:09:58.664Z,73.90
2022-10-02T21:12:39.124Z,74.10
2022-10-02T21:15:17.788Z,74.00
2022-10-02T21:17:57.152Z,74.30
2022-10-02T21:20:46.202Z,74.30
2022-10-02T21:23:25.893Z,74.30
2022-10-02T21:26:04.831Z,74.30
2022-10-02T21:28:51.002Z,74.30
2022-10-02T21:31:25.918Z,74.30
2022-10-02T21:34:30.221Z,74.60
2022-10-02T21:37:16.757Z,74.50
2022-10-02T21:40:21.897Z,74.60
2022-10-02T21:43:03.590Z,74.50
2022-10-02T21:45:49.109Z,74.60
2022-10-02T21:48:32.376Z,74.50
2022-10-02T21:51:41.470Z,74.70
2022-10-02T21:54:25.929Z,74.70
2022-10-02T21:56:55.290Z,74.90
2022-10-02T21:59:55.462Z,75.10
2022-10-02T22:02:38.753Z,75.00
2022-10-02T22:05:11.560Z,75.30
2022-10-02T22:07:52.644Z,75.30
2022-10-02T22:10:30.151Z,75.30
2022-10-02T22:13:23.189Z,75.40
2022-10-02T22:16:08.622Z,75.40
2022-10-02T22:18:50.108Z,75.70
2022-10-02T22:21:33.612Z,75.70
2022-10-02T22:24:27.891Z,75.70
2022-10-02T22:27:21.821Z,75.80
2022-10-02T22:29:51.552Z,75.80
2022-10-02T22:33:04.120Z,75.90
2022-10-02T22:35:43.641Z,75.70
2022-10-02T22:38:31.527Z,75.80
2022-10-02T22:41:16.308Z,75.40
2022-10-02T22:44:02.994Z,76.00
2022-10-02T22:46:44.339Z,76.10
2022-10-02T22:49:20.852Z,76.10
2022-10-02T22:52:21.245Z,76.20
2022-10-02T22:54:58.420Z,76.70
2022-10-02T22:57:43.123Z,76.40
2022-10-02T23:00:20.953Z,76.50
2022-10-02T23:03:15.220Z,76.50
2022-10-02T23:06:00.907Z,76.50
2022-10-02T23:08:46.318Z,76.50
2022-10-02T23:11:22.088Z,76.70
2022-10-02T23:13:56.566Z,76.90
2022-10-02T23:16:37.293Z,77.00
2022-10-02T23:19:26.981Z,77.00
2022-10-02T23:22:17.628Z,76.90
2022-10-02T23:24:57.382Z,77.10
2022-10-02T23:27:40.154Z,77.00
2022-10-02T23:30:19.224Z,77.10
2022-10-02T23:33:04.313Z,77.10
2022-10-02T23:35:58.583Z,77.20
2022-10-02T23:38:51.460Z,77.20
2022-10-02T23:41:39.397Z,77.30
2022-10-02T23:44:17.230Z,77.40
2022-10-02T23:46:45.143Z,77.40
2022-10-02T23:49:12.815Z,77.50
2022-10-02T23:51:58.125Z,78.10
2022-10-02T23:54:41.306Z,77.50
2022-10-02T23:57:35.600Z,77.70
